SVMX weather

Mata Airport
Las Fernández, Anzoategui, Venezuela

Public forecast

Using degrees Celsius for public forecast. Weather courtesy of forecast.io.

Closest aviation weather report (METAR) to Mata Airport

Report is more than 6 hours old.

Closest report is San Tomé Airport, 16.4 nm (30.4 km) SSW. Retrieved 2015/09/29 20:00 UTC (4 years ago):

SVST 292000Z 00000KT 9999 SCT060 ///// Q1011

Closest aviation forecast (TAF) to Mata Airport

Closest forecast is General José Antonio Anzoategui International Airport, 66.6 nm (123.4 km) NW. Retrieved 2020/02/25 18:00 UTC (3 hours ago):

TAF SVBC 251600Z 2518/2618 06004KT 9999 BKN010 TX33/18Z TN24/08Z TEMPO 2518/2522 07002KT SCT010 SCT070